sensor_id;sensor_type;location;lat;lon;timestamp;pressure;altitude;pressure_sealevel;temperature;humidity
66206;BME280;53009;52.490;4.976;2023-01-28T00:02:30;103200;;;3.9;0.4
66206;BME280;53009;52.490;4.976;2023-01-28T00:07:30;103200;;;3.9;0.4
66206;BME280;53009;52.490;4.976;2023-01-28T00:12:30;103200;;;3.9;0.5
66206;BME280;53009;52.490;4.976;2023-01-28T00:17:30;103200;;;3.9;0.4
66206;BME280;53009;52.490;4.976;2023-01-28T00:22:30;103100;;;3.9;0.3
66206;BME280;53009;52.490;4.976;2023-01-28T00:27:30;103100;;;3.9;0.6
66206;BME280;53009;52.490;4.976;2023-01-28T00:32:30;103200;;;3.9;0.6
66206;BME280;53009;52.490;4.976;2023-01-28T00:37:30;103200;;;3.9;0.5
66206;BME280;53009;52.490;4.976;2023-01-28T00:42:30;103200;;;3.9;0.4
66206;BME280;53009;52.490;4.976;2023-01-28T00:47:30;103100;;;4;0.4
66206;BME280;53009;52.490;4.976;2023-01-28T00:52:30;103200;;;4;0.4
66206;BME280;53009;52.490;4.976;2023-01-28T00:57:30;103100;;;3.9;0.6
66206;BME280;53009;52.490;4.976;2023-01-28T01:02:30;103200;;;3.9;0.4
66206;BME280;53009;52.490;4.976;2023-01-28T01:07:30;103100;;;3.9;0.4
66206;BME280;53009;52.490;4.976;2023-01-28T01:12:30;103100;;;3.9;0.9
66206;BME280;53009;52.490;4.976;2023-01-28T01:17:30;103100;;;3.9;0.6
66206;BME280;53009;52.490;4.976;2023-01-28T01:22:31;103100;;;3.9;0.5
66206;BME280;53009;52.490;4.976;2023-01-28T01:27:30;103100;;;3.9;0.5
66206;BME280;53009;52.490;4.976;2023-01-28T01:32:30;103100;;;3.9;0.7
66206;BME280;53009;52.490;4.976;2023-01-28T01:37:30;103200;;;3.8;1.2
66206;BME280;53009;52.490;4.976;2023-01-28T01:42:30;103200;;;3.8;0.8
66206;BME280;53009;52.490;4.976;2023-01-28T01:47:31;103100;;;3.9;0.6
66206;BME280;53009;52.490;4.976;2023-01-28T01:52:30;103200;;;3.8;0.9
66206;BME280;53009;52.490;4.976;2023-01-28T01:57:31;103100;;;3.7;1
66206;BME280;53009;52.490;4.976;2023-01-28T02:02:31;103100;;;3.7;0.9
66206;BME280;53009;52.490;4.976;2023-01-28T02:07:30;103200;;;3.7;1.1
66206;BME280;53009;52.490;4.976;2023-01-28T02:12:31;103200;;;3.6;1
66206;BME280;53009;52.490;4.976;2023-01-28T02:17:30;103200;;;3.7;1.2
66206;BME280;53009;52.490;4.976;2023-01-28T02:23:06;103200;;;3.6;0.9
66206;BME280;53009;52.490;4.976;2023-01-28T02:27:32;103200;;;3.7;0.9
66206;BME280;53009;52.490;4.976;2023-01-28T02:32:32;103200;;;3.8;0.9
66206;BME280;53009;52.490;4.976;2023-01-28T02:37:32;103200;;;3.8;0.7
66206;BME280;53009;52.490;4.976;2023-01-28T02:42:31;103200;;;3.8;0.8
66206;BME280;53009;52.490;4.976;2023-01-28T02:47:30;103200;;;3.8;0.6
66206;BME280;53009;52.490;4.976;2023-01-28T02:52:34;103200;;;3.8;0.6
66206;BME280;53009;52.490;4.976;2023-01-28T02:57:32;103200;;;3.8;0.7
66206;BME280;53009;52.490;4.976;2023-01-28T03:02:32;103200;;;3.9;0.5
66206;BME280;53009;52.490;4.976;2023-01-28T03:07:31;103200;;;3.9;0.7
66206;BME280;53009;52.490;4.976;2023-01-28T03:12:31;103200;;;3.8;1
66206;BME280;53009;52.490;4.976;2023-01-28T03:17:31;103200;;;3.7;0.7
66206;BME280;53009;52.490;4.976;2023-01-28T03:22:31;103200;;;3.7;0.8
66206;BME280;53009;52.490;4.976;2023-01-28T03:27:31;103200;;;3.8;1.2
66206;BME280;53009;52.490;4.976;2023-01-28T03:32:30;103200;;;3.7;0.8
66206;BME280;53009;52.490;4.976;2023-01-28T03:37:30;103200;;;3.8;0.6
66206;BME280;53009;52.490;4.976;2023-01-28T03:42:30;103200;;;3.8;0.8
66206;BME280;53009;52.490;4.976;2023-01-28T03:47:30;103200;;;3.8;1
66206;BME280;53009;52.490;4.976;2023-01-28T03:52:31;103200;;;3.7;1.4
66206;BME280;53009;52.490;4.976;2023-01-28T03:57:30;103200;;;3.7;1
66206;BME280;53009;52.490;4.976;2023-01-28T03:58:22;103200;;;3.7;1
66206;BME280;53009;52.490;4.976;2023-01-28T03:59:29;103200;;;3.7;0.9
66206;BME280;53009;52.490;4.976;2023-01-28T04:01:23;103200;;;3.7;0.8
66206;BME280;53009;52.490;4.976;2023-01-28T04:02:45;103200;;;3.7;0.8
66206;BME280;53009;52.490;4.976;2023-01-28T04:07:03;103200;;;3.8;0.8
66206;BME280;53009;52.490;4.976;2023-01-28T04:08:08;103200;;;3.8;0.9
66206;BME280;53009;52.490;4.976;2023-01-28T04:09:07;103200;;;3.8;1.1
66206;BME280;53009;52.490;4.976;2023-01-28T04:10:29;103200;;;3.8;0.8
66206;BME280;53009;52.490;4.976;2023-01-28T04:15:29;103200;;;3.8;0.9
66206;BME280;53009;52.490;4.976;2023-01-28T04:16:17;103200;;;3.8;0.8
66206;BME280;53009;52.490;4.976;2023-01-28T04:18:19;103200;;;3.8;0.6
66206;BME280;53009;52.490;4.976;2023-01-28T04:21:25;103200;;;3.8;1.4
66206;BME280;53009;52.490;4.976;2023-01-28T04:23:45;103200;;;3.7;1
66206;BME280;53009;52.490;4.976;2023-01-28T04:26:03;103200;;;3.8;0.9
66206;BME280;53009;52.490;4.976;2023-01-28T04:27:16;103200;;;3.7;0.7
66206;BME280;53009;52.490;4.976;2023-01-28T04:28:23;103200;;;3.8;0.8
66206;BME280;53009;52.490;4.976;2023-01-28T04:30:10;103200;;;3.7;0.9
66206;BME280;53009;52.490;4.976;2023-01-28T04:31:07;103200;;;3.7;0.7
66206;BME280;53009;52.490;4.976;2023-01-28T04:32:40;103200;;;3.7;0.6
66206;BME280;53009;52.490;4.976;2023-01-28T04:35:44;103200;;;3.7;1.1
66206;BME280;53009;52.490;4.976;2023-01-28T04:40:47;103200;;;3.7;0.5
66206;BME280;53009;52.490;4.976;2023-01-28T04:42:03;103200;;;3.7;0.9
66206;BME280;53009;52.490;4.976;2023-01-28T04:43:09;103200;;;3.7;0.6
66206;BME280;53009;52.490;4.976;2023-01-28T04:46:03;103200;;;3.7;0.7
66206;BME280;53009;52.490;4.976;2023-01-28T04:47:03;103200;;;3.7;0.6
66206;BME280;53009;52.490;4.976;2023-01-28T04:48:12;103200;;;3.7;0.5
66206;BME280;53009;52.490;4.976;2023-01-28T04:49:10;103200;;;3.7;1.4
66206;BME280;53009;52.490;4.976;2023-01-28T04:50:25;103200;;;3.7;0.9
66206;BME280;53009;52.490;4.976;2023-01-28T04:51:31;103200;;;3.7;0.7
66206;BME280;53009;52.490;4.976;2023-01-28T04:52:22;103200;;;3.7;0.6
66206;BME280;53009;52.490;4.976;2023-01-28T04:56:47;103200;;;3.7;0.9
66206;BME280;53009;52.490;4.976;2023-01-28T04:59:14;103200;;;3.7;0.8
66206;BME280;53009;52.490;4.976;2023-01-28T05:01:31;103200;;;3.7;0.6
66206;BME280;53009;52.490;4.976;2023-01-28T05:03:42;103200;;;3.8;0.7
66206;BME280;53009;52.490;4.976;2023-01-28T05:08:43;103200;;;3.8;0.7
66206;BME280;53009;52.490;4.976;2023-01-28T05:13:20;103200;;;3.7;0.7
66206;BME280;53009;52.490;4.976;2023-01-28T05:14:10;103200;;;3.7;0.7
66206;BME280;53009;52.490;4.976;2023-01-28T05:15:32;103200;;;3.7;0.6
66206;BME280;53009;52.490;4.976;2023-01-28T05:18:55;103200;;;3.7;0.5
66206;BME280;53009;52.490;4.976;2023-01-28T05:20:09;103200;;;3.7;0.5
66206;BME280;53009;52.490;4.976;2023-01-28T05:22:35;103200;;;3.7;0.6
66206;BME280;53009;52.490;4.976;2023-01-28T05:23:57;103200;;;3.8;0.4
66206;BME280;53009;52.490;4.976;2023-01-28T05:25:59;103200;;;3.7;0.8
66206;BME280;53009;52.490;4.976;2023-01-28T05:26:56;103200;;;3.8;0.6
66206;BME280;53009;52.490;4.976;2023-01-28T05:27:31;103200;;;3.7;0.5
66206;BME280;53009;52.490;4.976;2023-01-28T05:32:31;103200;;;3.7;0.7
66206;BME280;53009;52.490;4.976;2023-01-28T05:37:31;103200;;;3.7;0.5
66206;BME280;53009;52.490;4.976;2023-01-28T05:41:17;103200;;;3.8;0.5
66206;BME280;53009;52.490;4.976;2023-01-28T05:44:23;103200;;;3.8;0.6
66206;BME280;53009;52.490;4.976;2023-01-28T05:47:08;103200;;;3.8;0.4
66206;BME280;53009;52.490;4.976;2023-01-28T05:48:13;103200;;;3.8;0.3
66206;BME280;53009;52.490;4.976;2023-01-28T05:50:15;103200;;;3.8;0.3
66206;BME280;53009;52.490;4.976;2023-01-28T05:55:15;103200;;;3.7;1.2
66206;BME280;53009;52.490;4.976;2023-01-28T05:56:03;103200;;;3.7;0.6
66206;BME280;53009;52.490;4.976;2023-01-28T06:00:49;103200;;;3.7;0.6
66206;BME280;53009;52.490;4.976;2023-01-28T06:02:20;103200;;;3.7;0.5
66206;BME280;53009;52.490;4.976;2023-01-28T06:07:20;103200;;;3.7;1.4
66206;BME280;53009;52.490;4.976;2023-01-28T06:09:03;103200;;;3.7;0.8
66206;BME280;53009;52.490;4.976;2023-01-28T06:11:02;103200;;;3.7;0.8
66206;BME280;53009;52.490;4.976;2023-01-28T06:15:25;103200;;;3.8;0.6
66206;BME280;53009;52.490;4.976;2023-01-28T06:20:24;103200;;;3.8;0.5
66206;BME280;53009;52.490;4.976;2023-01-28T06:22:59;103200;;;3.8;0.5
66206;BME280;53009;52.490;4.976;2023-01-28T06:27:17;103200;;;3.8;0.4
66206;BME280;53009;52.490;4.976;2023-01-28T06:28:39;103200;;;3.9;0.3
66206;BME280;53009;52.490;4.976;2023-01-28T06:29:37;103200;;;3.8;0.4
66206;BME280;53009;52.490;4.976;2023-01-28T06:32:43;103200;;;3.8;0.4
66206;BME280;53009;52.490;4.976;2023-01-28T06:33:57;103200;;;3.8;0.3
66206;BME280;53009;52.490;4.976;2023-01-28T06:34:23;103200;;;3.8;0.4
66206;BME280;53009;52.490;4.976;2023-01-28T06:36:34;103200;;;3.8;0.3
66206;BME280;53009;52.490;4.976;2023-01-28T06:41:33;103200;;;3.8;0.3
66206;BME280;53009;52.490;4.976;2023-01-28T06:42:58;103200;;;3.8;0.3
66206;BME280;53009;52.490;4.976;2023-01-28T06:44:34;103200;;;3.8;0.3
66206;BME280;53009;52.490;4.976;2023-01-28T06:45:43;103200;;;3.8;0.2
66206;BME280;53009;52.490;4.976;2023-01-28T06:49:45;103200;;;3.8;0.3
66206;BME280;53009;52.490;4.976;2023-01-28T06:54:04;103200;;;3.8;0.3
66206;BME280;53009;52.490;4.976;2023-01-28T06:58:21;103200;;;3.8;0.1
66206;BME280;53009;52.490;4.976;2023-01-28T06:59:35;103200;;;3.8;0.2
66206;BME280;53009;52.490;4.976;2023-01-28T07:01:45;103200;;;3.7;0.4
66206;BME280;53009;52.490;4.976;2023-01-28T07:04:16;103200;;;3.7;0.4
66206;BME280;53009;52.490;4.976;2023-01-28T07:05:33;103200;;;3.7;0.5
66206;BME280;53009;52.490;4.976;2023-01-28T07:08:46;103200;;;3.6;0.5
66206;BME280;53009;52.490;4.976;2023-01-28T07:12:17;103200;;;3.6;0.6
66206;BME280;53009;52.490;4.976;2023-01-28T07:13:15;103200;;;3.6;0.8
66206;BME280;53009;52.490;4.976;2023-01-28T07:15:33;103200;;;3.6;0.5
66206;BME280;53009;52.490;4.976;2023-01-28T07:16:39;103200;;;3.5;0.6
66206;BME280;53009;52.490;4.976;2023-01-28T07:17:37;103200;;;3.6;0.5
66206;BME280;53009;52.490;4.976;2023-01-28T07:22:10;103200;;;3.6;0.4
66206;BME280;53009;52.490;4.976;2023-01-28T07:26:11;103200;;;3.6;0.5
66206;BME280;53009;52.490;4.976;2023-01-28T07:27:20;103200;;;3.6;0.4
66206;BME280;53009;52.490;4.976;2023-01-28T07:28:03;103200;;;3.6;0.5
66206;BME280;53009;52.490;4.976;2023-01-28T07:29:56;103200;;;3.6;0.4
66206;BME280;53009;52.490;4.976;2023-01-28T07:31:19;103200;;;3.6;0.3
66206;BME280;53009;52.490;4.976;2023-01-28T07:33:21;103200;;;3.6;0.4
66206;BME280;53009;52.490;4.976;2023-01-28T07:38:26;103200;;;3.6;0.4
66206;BME280;53009;52.490;4.976;2023-01-28T07:39:33;103200;;;3.6;0.5
66206;BME280;53009;52.490;4.976;2023-01-28T07:44:33;103200;;;3.6;0.6
66206;BME280;53009;52.490;4.976;2023-01-28T07:46:06;103200;;;3.5;0.6
66206;BME280;53009;52.490;4.976;2023-01-28T07:49:05;103200;;;3.5;0.6
66206;BME280;53009;52.490;4.976;2023-01-28T07:52:02;103200;;;3.4;0.7
66206;BME280;53009;52.490;4.976;2023-01-28T07:55:03;103200;;;3.3;0.8
66206;BME280;53009;52.490;4.976;2023-01-28T07:59:03;103200;;;3.3;0.9
66206;BME280;53009;52.490;4.976;2023-01-28T08:04:03;103200;;;3.2;0.9
66206;BME280;53009;52.490;4.976;2023-01-28T08:05:46;103200;;;3.2;0.9
66206;BME280;53009;52.490;4.976;2023-01-28T08:09:00;103200;;;3.2;0.9
66206;BME280;53009;52.490;4.976;2023-01-28T08:14:00;103200;;;3.2;0.9
66206;BME280;53009;52.490;4.976;2023-01-28T08:19:00;103200;;;3.3;0.6
66206;BME280;53009;52.490;4.976;2023-01-28T08:20:05;103200;;;3.3;0.6
66206;BME280;53009;52.490;4.976;2023-01-28T08:21:20;103200;;;3.3;0.7
66206;BME280;53009;52.490;4.976;2023-01-28T08:24:41;103200;;;3.4;0.7
66206;BME280;53009;52.490;4.976;2023-01-28T08:25:56;103200;;;3.4;0.7
66206;BME280;53009;52.490;4.976;2023-01-28T08:27:02;103200;;;3.4;0.7
66206;BME280;53009;52.490;4.976;2023-01-28T08:29:28;103200;;;3.5;0.4
66206;BME280;53009;52.490;4.976;2023-01-28T08:30:10;103200;;;3.5;0.4
66206;BME280;53009;52.490;4.976;2023-01-28T08:31:23;103200;;;3.5;0.5
66206;BME280;53009;52.490;4.976;2023-01-28T08:35:27;103200;;;3.6;0.4
66206;BME280;53009;52.490;4.976;2023-01-28T08:39:53;103200;;;3.6;0.5
66206;BME280;53009;52.490;4.976;2023-01-28T08:42:09;103200;;;3.6;0.5
66206;BME280;53009;52.490;4.976;2023-01-28T08:44:20;103200;;;3.6;0.7
66206;BME280;53009;52.490;4.976;2023-01-28T08:46:47;103200;;;3.5;0.6
66206;BME280;53009;52.490;4.976;2023-01-28T08:48:56;103200;;;3.5;0.6
66206;BME280;53009;52.490;4.976;2023-01-28T08:49:55;103200;;;3.5;0.6
66206;BME280;53009;52.490;4.976;2023-01-28T08:52:04;103200;;;3.6;0.7
66206;BME280;53009;52.490;4.976;2023-01-28T08:53:26;103200;;;3.6;1.3
66206;BME280;53009;52.490;4.976;2023-01-28T08:55:36;103300;;;3.6;0.5
66206;BME280;53009;52.490;4.976;2023-01-28T08:56:33;103300;;;3.6;0.5
66206;BME280;53009;52.490;4.976;2023-01-28T08:59:09;103300;;;3.6;0.5
66206;BME280;53009;52.490;4.976;2023-01-28T09:04:09;103300;;;3.7;0.4
66206;BME280;53009;52.490;4.976;2023-01-28T09:05:03;103300;;;3.7;0.4
66206;BME280;53009;52.490;4.976;2023-01-28T09:07:03;103300;;;3.8;0.5
66206;BME280;53009;52.490;4.976;2023-01-28T09:09:06;103300;;;4;1.1
66206;BME280;53009;52.490;4.976;2023-01-28T09:10:03;103300;;;4;0.4
66206;BME280;53009;52.490;4.976;2023-01-28T09:12:47;103300;;;4.1;1.4
66206;BME280;53009;52.490;4.976;2023-01-28T09:15:05;103300;;;4.2;0.8
66206;BME280;53009;52.490;4.976;2023-01-28T09:17:06;103300;;;4.2;0.6
66206;BME280;53009;52.490;4.976;2023-01-28T09:20:29;103300;;;4.1;0.6
66206;BME280;53009;52.490;4.976;2023-01-28T09:23:35;103300;;;4.2;0.2
66206;BME280;53009;52.490;4.976;2023-01-28T09:28:35;103300;;;4.4;1
66206;BME280;53009;52.490;4.976;2023-01-28T09:33:36;103300;;;4.7;0.2
66206;BME280;53009;52.490;4.976;2023-01-28T09:36:17;103300;;;4.7;0.7
66206;BME280;53009;52.490;4.976;2023-01-28T09:37:23;103300;;;4.7;0.2
66206;BME280;53009;52.490;4.976;2023-01-28T09:38:37;103300;;;4.8;0.1
66206;BME280;53009;52.490;4.976;2023-01-28T09:40:39;103300;;;4.8;0.8
66206;BME280;53009;52.490;4.976;2023-01-28T09:41:18;103300;;;4.8;0.5
66206;BME280;53009;52.490;4.976;2023-01-28T09:44:30;103300;;;4.9;0.8
66206;BME280;53009;52.490;4.976;2023-01-28T09:48:57;103300;;;5.1;1.4
66206;BME280;53009;52.490;4.976;2023-01-28T09:53:25;103300;;;5.1;0.4
66206;BME280;53009;52.490;4.976;2023-01-28T09:54:49;103300;;;5.1;0.3
66206;BME280;53009;52.490;4.976;2023-01-28T09:57:08;103300;;;5.2;0.1
66206;BME280;53009;52.490;4.976;2023-01-28T10:01:20;103300;;;5.2;1.3
66206;BME280;53009;52.490;4.976;2023-01-28T10:03:59;103300;;;5.2;0.5
66206;BME280;53009;52.490;4.976;2023-01-28T10:05:15;103300;;;5.3;0
66206;BME280;53009;52.490;4.976;2023-01-28T10:06:21;103300;;;5.4;1.2
66206;BME280;53009;52.490;4.976;2023-01-28T10:07:08;103300;;;5.5;0.1
66206;BME280;53009;52.490;4.976;2023-01-28T10:09:51;103300;;;5.6;0.2
66206;BME280;53009;52.490;4.976;2023-01-28T10:10:19;103300;;;5.6;1
66206;BME280;53009;52.490;4.976;2023-01-28T10:11:18;103300;;;5.5;0.3
66206;BME280;53009;52.490;4.976;2023-01-28T10:13:27;103300;;;5.3;0
66206;BME280;53009;52.490;4.976;2023-01-28T10:16:33;103300;;;5.3;0.3
66206;BME280;53009;52.490;4.976;2023-01-28T10:17:38;103300;;;5.2;0.4
66206;BME280;53009;52.490;4.976;2023-01-28T10:18:34;103300;;;5.1;0.2
66206;BME280;53009;52.490;4.976;2023-01-28T10:19:04;103300;;;5.1;0.2
66206;BME280;53009;52.490;4.976;2023-01-28T10:22:08;103300;;;5.3;0.4
66206;BME280;53009;52.490;4.976;2023-01-28T10:23:15;103300;;;5.3;0.3
66206;BME280;53009;52.490;4.976;2023-01-28T10:24:20;103300;;;5.4;0.9
66206;BME280;53009;52.490;4.976;2023-01-28T10:25:14;103300;;;5.5;0
66206;BME280;53009;52.490;4.976;2023-01-28T10:26:13;103300;;;5.5;0.6
66206;BME280;53009;52.490;4.976;2023-01-28T10:27:14;103300;;;5.6;0.9
66206;BME280;53009;52.490;4.976;2023-01-28T10:32:15;103300;;;5.7;0
66206;BME280;53009;52.490;4.976;2023-01-28T10:33:09;103300;;;5.7;0
66206;BME280;53009;52.490;4.976;2023-01-28T10:38:07;103200;;;5.7;0
66206;BME280;53009;52.490;4.976;2023-01-28T10:40:14;103200;;;5.7;0
66206;BME280;53009;52.490;4.976;2023-01-28T10:44:28;103200;;;5.8;0
66206;BME280;53009;52.490;4.976;2023-01-28T10:48:43;103200;;;5.8;0
66206;BME280;53009;52.490;4.976;2023-01-28T10:51:07;103200;;;5.8;0
66206;BME280;53009;52.490;4.976;2023-01-28T10:52:30;103200;;;5.8;0.1
66206;BME280;53009;52.490;4.976;2023-01-28T10:53:35;103200;;;5.8;0
66206;BME280;53009;52.490;4.976;2023-01-28T10:55:48;103200;;;5.9;0
66206;BME280;53009;52.490;4.976;2023-01-28T10:58:12;103200;;;5.9;0
66206;BME280;53009;52.490;4.976;2023-01-28T10:59:03;103200;;;5.9;0
66206;BME280;53009;52.490;4.976;2023-01-28T11:04:03;103200;;;5.9;0.1
66206;BME280;53009;52.490;4.976;2023-01-28T11:07:45;103200;;;6;0
66206;BME280;53009;52.490;4.976;2023-01-28T11:09:19;103200;;;6;0
66206;BME280;53009;52.490;4.976;2023-01-28T11:10:23;103200;;;6;0.2
66206;BME280;53009;52.490;4.976;2023-01-28T11:12:33;103200;;;6;0
66206;BME280;53009;52.490;4.976;2023-01-28T11:13:55;103200;;;6;0
66206;BME280;53009;52.490;4.976;2023-01-28T11:16:14;103200;;;6;0
66206;BME280;53009;52.490;4.976;2023-01-28T11:19:42;103200;;;6.2;0
66206;BME280;53009;52.490;4.976;2023-01-28T11:24:56;103200;;;6.1;0
66206;BME280;53009;52.490;4.976;2023-01-28T11:25:58;103200;;;6.1;0
66206;BME280;53009;52.490;4.976;2023-01-28T11:26:53;103200;;;6.1;0
66206;BME280;53009;52.490;4.976;2023-01-28T11:29:21;103200;;;6.1;0
66206;BME280;53009;52.490;4.976;2023-01-28T11:30:18;103200;;;6;0
66206;BME280;53009;52.490;4.976;2023-01-28T11:31:13;103200;;;6.1;0
66206;BME280;53009;52.490;4.976;2023-01-28T11:32:16;103200;;;6.1;0
66206;BME280;53009;52.490;4.976;2023-01-28T11:36:05;103200;;;6.2;0
66206;BME280;53009;52.490;4.976;2023-01-28T11:40:59;103200;;;6.2;0
66206;BME280;53009;52.490;4.976;2023-01-28T11:42:10;103200;;;6.2;0
66206;BME280;53009;52.490;4.976;2023-01-28T11:45:24;103200;;;6.2;0
66206;BME280;53009;52.490;4.976;2023-01-28T11:47:35;103200;;;6.2;0
66206;BME280;53009;52.490;4.976;2023-01-28T11:52:09;103200;;;6.2;0
66206;BME280;53009;52.490;4.976;2023-01-28T11:57:12;103200;;;6.3;0
66206;BME280;53009;52.490;4.976;2023-01-28T12:02:08;103200;;;6.3;0
66206;BME280;53009;52.490;4.976;2023-01-28T12:07:12;103200;;;6.4;0
66206;BME280;53009;52.490;4.976;2023-01-28T12:12:11;103200;;;6.4;0
66206;BME280;53009;52.490;4.976;2023-01-28T12:17:10;103200;;;6.8;0
66206;BME280;53009;52.490;4.976;2023-01-28T12:22:14;103200;;;7.1;0
66206;BME280;53009;52.490;4.976;2023-01-28T12:27:09;103200;;;6.7;0
66206;BME280;53009;52.490;4.976;2023-01-28T12:32:11;103200;;;6.1;0
66206;BME280;53009;52.490;4.976;2023-01-28T12:37:08;103100;;;5.9;0
66206;BME280;53009;52.490;4.976;2023-01-28T12:42:08;103100;;;6.2;0
66206;BME280;53009;52.490;4.976;2023-01-28T12:47:08;103100;;;6.4;0
66206;BME280;53009;52.490;4.976;2023-01-28T12:52:08;103100;;;6.5;0
66206;BME280;53009;52.490;4.976;2023-01-28T12:57:07;103100;;;6.6;0
66206;BME280;53009;52.490;4.976;2023-01-28T13:01:27;103100;;;6.7;0
66206;BME280;53009;52.490;4.976;2023-01-28T13:03:39;103100;;;6.7;0
66206;BME280;53009;52.490;4.976;2023-01-28T13:05:48;103100;;;6.9;0
66206;BME280;53009;52.490;4.976;2023-01-28T13:08:24;103100;;;6.9;0
66206;BME280;53009;52.490;4.976;2023-01-28T13:10:26;103100;;;6.8;0
66206;BME280;53009;52.490;4.976;2023-01-28T13:15:25;103100;;;6.7;0
66206;BME280;53009;52.490;4.976;2023-01-28T13:20:45;103100;;;6.6;0
66206;BME280;53009;52.490;4.976;2023-01-28T13:25:26;103100;;;6.5;0
66206;BME280;53009;52.490;4.976;2023-01-28T13:30:26;103100;;;6.3;0
66206;BME280;53009;52.490;4.976;2023-01-28T13:35:28;103100;;;6.1;0
66206;BME280;53009;52.490;4.976;2023-01-28T13:40:26;103100;;;6;0
66206;BME280;53009;52.490;4.976;2023-01-28T13:45:26;103100;;;6.3;0
66206;BME280;53009;52.490;4.976;2023-01-28T13:50:30;103100;;;6.5;0
66206;BME280;53009;52.490;4.976;2023-01-28T13:55:26;103100;;;6.8;0
66206;BME280;53009;52.490;4.976;2023-01-28T14:00:27;103100;;;6.8;0
66206;BME280;53009;52.490;4.976;2023-01-28T14:05:46;103100;;;6.7;0
66206;BME280;53009;52.490;4.976;2023-01-28T14:10:28;103100;;;6.7;0
66206;BME280;53009;52.490;4.976;2023-01-28T14:15:35;103100;;;6.7;0
66206;BME280;53009;52.490;4.976;2023-01-28T14:20:27;103100;;;6.7;0
66206;BME280;53009;52.490;4.976;2023-01-28T14:25:27;103100;;;6.7;0
66206;BME280;53009;52.490;4.976;2023-01-28T14:30:28;103100;;;6.6;0
66206;BME280;53009;52.490;4.976;2023-01-28T14:35:27;103100;;;6.4;0
66206;BME280;53009;52.490;4.976;2023-01-28T14:40:27;103100;;;6.4;0
66206;BME280;53009;52.490;4.976;2023-01-28T14:45:30;103100;;;6.4;0
66206;BME280;53009;52.490;4.976;2023-01-28T14:50:29;103100;;;6.4;0
66206;BME280;53009;52.490;4.976;2023-01-28T14:55:28;103100;;;6.3;0
66206;BME280;53009;52.490;4.976;2023-01-28T15:00:26;103200;;;6.3;0
66206;BME280;53009;52.490;4.976;2023-01-28T15:05:26;103200;;;6.3;0
66206;BME280;53009;52.490;4.976;2023-01-28T15:10:26;103200;;;6.2;0
66206;BME280;53009;52.490;4.976;2023-01-28T15:15:27;103100;;;6.2;0
66206;BME280;53009;52.490;4.976;2023-01-28T15:20:26;103200;;;6.1;0
66206;BME280;53009;52.490;4.976;2023-01-28T15:25:27;103200;;;6.1;0
66206;BME280;53009;52.490;4.976;2023-01-28T15:30:27;103200;;;6.1;0
66206;BME280;53009;52.490;4.976;2023-01-28T15:35:26;103200;;;6.1;0
66206;BME280;53009;52.490;4.976;2023-01-28T15:40:26;103200;;;6.1;0
66206;BME280;53009;52.490;4.976;2023-01-28T15:45:26;103200;;;6;0
66206;BME280;53009;52.490;4.976;2023-01-28T15:50:26;103200;;;6;0
66206;BME280;53009;52.490;4.976;2023-01-28T15:55:31;103200;;;6;0
66206;BME280;53009;52.490;4.976;2023-01-28T16:00:26;103200;;;6;0
66206;BME280;53009;52.490;4.976;2023-01-28T16:05:26;103200;;;6;0
66206;BME280;53009;52.490;4.976;2023-01-28T16:10:27;103200;;;5.9;0
66206;BME280;53009;52.490;4.976;2023-01-28T16:15:26;103200;;;5.9;0
66206;BME280;53009;52.490;4.976;2023-01-28T16:20:26;103200;;;5.8;0
66206;BME280;53009;52.490;4.976;2023-01-28T16:25:27;103200;;;5.8;0
66206;BME280;53009;52.490;4.976;2023-01-28T16:30:26;103200;;;5.8;0
66206;BME280;53009;52.490;4.976;2023-01-28T16:35:26;103200;;;5.8;0
66206;BME280;53009;52.490;4.976;2023-01-28T16:40:26;103200;;;5.7;0
66206;BME280;53009;52.490;4.976;2023-01-28T16:45:26;103200;;;5.7;0
66206;BME280;53009;52.490;4.976;2023-01-28T16:50:26;103200;;;5.7;0
66206;BME280;53009;52.490;4.976;2023-01-28T16:55:26;103200;;;5.7;0
66206;BME280;53009;52.490;4.976;2023-01-28T17:00:26;103200;;;5.6;0
66206;BME280;53009;52.490;4.976;2023-01-28T17:05:26;103200;;;5.6;0
66206;BME280;53009;52.490;4.976;2023-01-28T17:10:26;103200;;;5.6;0
66206;BME280;53009;52.490;4.976;2023-01-28T17:15:26;103100;;;5.5;0
66206;BME280;53009;52.490;4.976;2023-01-28T17:20:26;103200;;;5.5;0
66206;BME280;53009;52.490;4.976;2023-01-28T17:25:26;103200;;;5.4;0
66206;BME280;53009;52.490;4.976;2023-01-28T17:30:26;103200;;;5.4;0
66206;BME280;53009;52.490;4.976;2023-01-28T17:35:26;103200;;;5.5;0
66206;BME280;53009;52.490;4.976;2023-01-28T17:40:26;103200;;;5.5;0
66206;BME280;53009;52.490;4.976;2023-01-28T17:45:28;103200;;;5.4;0
66206;BME280;53009;52.490;4.976;2023-01-28T17:50:26;103200;;;5.4;0
66206;BME280;53009;52.490;4.976;2023-01-28T17:55:26;103200;;;5.4;0
66206;BME280;53009;52.490;4.976;2023-01-28T18:00:26;103200;;;5.4;0
66206;BME280;53009;52.490;4.976;2023-01-28T18:05:26;103200;;;5.4;0
66206;BME280;53009;52.490;4.976;2023-01-28T18:10:26;103200;;;5.4;0
66206;BME280;53009;52.490;4.976;2023-01-28T18:15:26;103200;;;5.5;0
66206;BME280;53009;52.490;4.976;2023-01-28T18:20:26;103200;;;5.4;0
66206;BME280;53009;52.490;4.976;2023-01-28T18:25:26;103200;;;5.4;0
66206;BME280;53009;52.490;4.976;2023-01-28T18:29:24;103200;;;5.5;0
66206;BME280;53009;52.490;4.976;2023-01-28T18:33:41;103200;;;5.5;0
66206;BME280;53009;52.490;4.976;2023-01-28T18:34:56;103200;;;5.5;0
66206;BME280;53009;52.490;4.976;2023-01-28T18:36:10;103200;;;5.5;0
66206;BME280;53009;52.490;4.976;2023-01-28T18:40:11;103200;;;5.5;0
66206;BME280;53009;52.490;4.976;2023-01-28T18:42:37;103200;;;5.5;0
66206;BME280;53009;52.490;4.976;2023-01-28T18:43:44;103200;;;5.4;0
66206;BME280;53009;52.490;4.976;2023-01-28T18:48:10;103200;;;5.4;0
66206;BME280;53009;52.490;4.976;2023-01-28T18:52:12;103200;;;5.4;0
66206;BME280;53009;52.490;4.976;2023-01-28T18:55:42;103200;;;5.4;0
66206;BME280;53009;52.490;4.976;2023-01-28T18:56:48;103200;;;5.4;0
66206;BME280;53009;52.490;4.976;2023-01-28T18:58:01;103200;;;5.4;0
66206;BME280;53009;52.490;4.976;2023-01-28T19:02:29;103200;;;5.4;0
66206;BME280;53009;52.490;4.976;2023-01-28T19:04:07;103200;;;5.4;0
66206;BME280;53009;52.490;4.976;2023-01-28T19:05:33;103200;;;5.4;0
66206;BME280;53009;52.490;4.976;2023-01-28T19:06:37;103200;;;5.4;0
66206;BME280;53009;52.490;4.976;2023-01-28T19:07:50;103200;;;5.4;0
66206;BME280;53009;52.490;4.976;2023-01-28T19:08:50;103200;;;5.4;0
66206;BME280;53009;52.490;4.976;2023-01-28T19:10:54;103200;;;5.4;0
66206;BME280;53009;52.490;4.976;2023-01-28T19:12:04;103200;;;5.4;0
66206;BME280;53009;52.490;4.976;2023-01-28T19:12:43;103200;;;5.4;0